Time;durP1;ratioP1;P1;durP2;ratioP2;P2;SDS_P1;SDS_P2;PMS_P1;PMS_P2;Temp;Humidity;BMP_temperature;BMP_pressure;BME280_temperature;BME280_humidity;BME280_pressure;Samples;Min_cycle;Max_cycle;Signal;HPM_P1;HPM_P2
2021/04/10 00:02:15;;;;;;;5.60;3.33;;;7.00;51.80;;;;;;5112551;28;20089;-73
2021/04/10 00:04:41;;;;;;;5.57;3.65;;;7.10;51.80;;;;;;5112752;28;20092;-72
2021/04/10 00:07:07;;;;;;;7.35;4.28;;;7.10;51.90;;;;;;5112577;28;20415;-72
2021/04/10 00:09:33;;;;;;;7.38;3.78;;;7.10;51.80;;;;;;5113175;28;20039;-72
2021/04/10 00:11:59;;;;;;;5.05;3.67;;;7.20;51.80;;;;;;5112727;28;20036;-72
2021/04/10 00:14:25;;;;;;;6.75;3.90;;;7.10;51.90;;;;;;5112772;28;20539;-73
2021/04/10 00:16:51;;;;;;;6.53;3.55;;;7.10;52.00;;;;;;5113899;28;20031;-71
2021/04/10 00:19:17;;;;;;;6.78;3.80;;;7.00;52.10;;;;;;5116512;28;20084;-71
2021/04/10 00:21:43;;;;;;;8.30;4.65;;;7.10;52.20;;;;;;5116407;28;20047;-70
2021/04/10 00:24:11;;;;;;;12.70;4.50;;;7.10;52.10;;;;;;5098528;28;20530;-71
2021/04/10 00:26:36;;;;;;;8.77;4.63;;;7.10;52.20;;;;;;5116586;28;20396;-71
2021/04/10 00:29:02;;;;;;;9.77;5.68;;;7.00;52.40;;;;;;5116606;28;20032;-74
2021/04/10 00:31:28;;;;;;;7.53;4.68;;;7.00;52.40;;;;;;5116322;28;20047;-72
2021/04/10 00:33:54;;;;;;;11.05;5.22;;;7.00;52.50;;;;;;5116473;28;20031;-73
2021/04/10 00:36:20;;;;;;;13.45;5.22;;;7.00;52.80;;;;;;5094221;28;20055;-71
2021/04/10 00:38:46;;;;;;;9.65;5.22;;;6.90;52.70;;;;;;5094821;28;20092;-72
2021/04/10 00:41:13;;;;;;;10.95;5.88;;;6.90;52.90;;;;;;5096216;28;20122;-72
2021/04/10 00:43:39;;;;;;;10.23;5.07;;;6.90;52.90;;;;;;5095858;28;20031;-72
2021/04/10 00:46:08;;;;;;;7.28;4.88;;;6.90;52.90;;;;;;5095832;28;20085;-73
2021/04/10 00:48:35;;;;;;;10.43;5.65;;;6.80;53.10;;;;;;5095886;28;20040;-74
2021/04/10 00:51:02;;;;;;;8.93;5.20;;;6.80;53.20;;;;;;5095517;28;20063;-72
2021/04/10 00:53:31;;;;;;;10.35;5.38;;;6.80;53.30;;;;;;5095774;28;20038;-74
2021/04/10 00:56:01;;;;;;;9.13;5.20;;;6.80;53.30;;;;;;5095637;28;20134;-74
2021/04/10 00:58:27;;;;;;;12.05;5.20;;;6.70;53.50;;;;;;5094353;28;20043;-74
2021/04/10 01:00:53;;;;;;;10.57;5.75;;;6.70;53.80;;;;;;5094319;28;20031;-72
2021/04/10 01:03:21;;;;;;;10.00;5.55;;;6.70;53.90;;;;;;5094212;28;20071;-74
2021/04/10 01:05:47;;;;;;;10.93;5.20;;;6.70;54.50;;;;;;5095336;28;20089;-71
2021/04/10 01:08:13;;;;;;;9.13;5.10;;;6.60;54.00;;;;;;5095516;28;20031;-72
2021/04/10 01:10:40;;;;;;;9.60;5.13;;;6.60;54.10;;;;;;5094301;28;20491;-71
2021/04/10 01:13:31;;;;;;;11.45;5.43;;;6.60;54.30;;;;;;5094077;28;20078;-70
2021/04/10 01:16:03;;;;;;;13.02;5.38;;;6.70;54.20;;;;;;5095048;28;20082;-72
2021/04/10 01:18:43;;;;;;;10.95;5.90;;;6.60;54.20;;;;;;5095250;28;20064;-73
2021/04/10 01:21:28;;;;;;;9.45;5.50;;;6.60;54.30;;;;;;5095259;28;20065;-72
2021/04/10 01:24:09;;;;;;;12.57;6.40;;;6.60;54.20;;;;;;5094183;28;20089;-72
2021/04/10 01:26:54;;;;;;;10.45;5.38;;;6.60;54.40;;;;;;5094939;28;20076;-71
2021/04/10 01:29:22;;;;;;;12.52;5.20;;;6.60;54.50;;;;;;5093854;28;20134;-74
2021/04/10 01:31:51;;;;;;;11.38;5.95;;;6.60;54.70;;;;;;5094930;28;20047;-73
2021/04/10 01:34:31;;;;;;;15.20;6.00;;;6.60;54.50;;;;;;5095589;28;20454;-74
2021/04/10 01:37:05;;;;;;;9.23;6.03;;;6.60;54.50;;;;;;5115067;28;20036;-73
2021/04/10 01:39:33;;;;;;;10.52;5.78;;;6.60;54.70;;;;;;5115539;28;20036;-74
2021/04/10 01:42:01;;;;;;;18.88;7.07;;;6.60;54.80;;;;;;5096877;28;20050;-73
2021/04/10 01:44:28;;;;;;;12.32;5.70;;;6.70;54.80;;;;;;5115198;28;20032;-73
2021/04/10 01:46:56;;;;;;;12.55;6.80;;;6.70;54.80;;;;;;5096768;28;20131;-73
2021/04/10 01:49:23;;;;;;;15.40;6.82;;;6.60;54.90;;;;;;5114835;28;20104;-74
2021/04/10 01:51:50;;;;;;;8.60;5.10;;;6.50;54.80;;;;;;5096715;28;20126;-72
2021/04/10 01:54:18;;;;;;;18.08;6.57;;;6.60;55.10;;;;;;5114661;28;20035;-72
2021/04/10 01:56:47;;;;;;;13.63;6.10;;;6.50;55.10;;;;;;5096767;28;20531;-72
2021/04/10 01:59:23;;;;;;;12.27;6.18;;;6.40;55.30;;;;;;5096497;28;20569;-72
2021/04/10 02:01:53;;;;;;;17.58;6.28;;;6.50;55.20;;;;;;5114692;28;20038;-72
2021/04/10 02:04:22;;;;;;;10.45;5.82;;;6.40;55.20;;;;;;5096356;28;20067;-73
2021/04/10 02:06:51;;;;;;;10.65;5.85;;;6.40;55.40;;;;;;5114488;28;20536;-72
2021/04/10 02:09:23;;;;;;;11.00;5.53;;;6.40;55.60;;;;;;5096279;28;20027;-72
2021/04/10 02:12:07;;;;;;;;;;;6.40;55.60;;;;;;5096669;28;20048;-72
2021/04/10 02:14:43;;;;;;;11.57;6.40;;;6.30;55.60;;;;;;5096237;28;20336;-72
2021/04/10 02:17:10;;;;;;;9.90;5.75;;;6.40;55.70;;;;;;5096449;28;20122;-72
2021/04/10 02:19:46;;;;;;;13.07;5.90;;;6.40;55.50;;;;;;5096055;28;20043;-73
2021/04/10 02:22:15;;;;;;;12.55;5.40;;;6.40;55.60;;;;;;5096294;28;20131;-72
2021/04/10 02:24:43;;;;;;;22.02;7.35;;;6.30;56.00;;;;;;5095920;28;20095;-73
2021/04/10 02:27:10;;;;;;;12.35;6.28;;;6.30;55.90;;;;;;5114224;28;20036;-72
2021/04/10 02:29:46;;;;;;;7.30;5.18;;;6.30;55.80;;;;;;5096858;28;20032;-73
2021/04/10 02:32:24;;;;;;;11.68;5.85;;;6.30;56.00;;;;;;5096528;28;20493;-71
2021/04/10 02:35:31;;;;;;;11.32;5.88;;;6.30;56.00;;;;;;5095824;28;20067;-70
2021/04/10 02:37:58;;;;;;;10.25;6.00;;;6.30;56.00;;;;;;5111393;28;20090;-73
2021/04/10 02:40:29;;;;;;;10.63;5.53;;;6.30;56.20;;;;;;5095357;28;20023;-73
2021/04/10 02:42:57;;;;;;;12.30;5.80;;;6.20;56.30;;;;;;5114086;28;20031;-73
2021/04/10 02:45:29;;;;;;;11.35;5.88;;;6.20;56.40;;;;;;5096178;28;20044;-72
2021/04/10 02:48:20;;;;;;;12.38;5.63;;;6.20;56.70;;;;;;5113720;28;20031;-72
2021/04/10 02:50:47;;;;;;;15.68;5.93;;;6.20;56.80;;;;;;5114339;28;20028;-72
2021/04/10 02:53:16;;;;;;;15.30;5.20;;;6.10;56.90;;;;;;5113673;28;20126;-73
2021/04/10 02:55:46;;;;;;;10.50;5.28;;;6.20;57.00;;;;;;5094693;28;20035;-72
2021/04/10 02:58:19;;;;;;;10.65;5.25;;;6.20;57.00;;;;;;5094118;28;20139;-73
2021/04/10 03:00:47;;;;;;;10.15;4.85;;;6.20;56.90;;;;;;5113095;28;20118;-73
2021/04/10 03:03:17;;;;;;;15.32;5.35;;;6.20;56.90;;;;;;5113583;28;20036;-73
2021/04/10 03:05:47;;;;;;;11.38;4.82;;;6.20;57.00;;;;;;5078650;28;20499;-72
2021/04/10 03:08:32;;;;;;;9.45;4.95;;;6.20;57.10;;;;;;5095650;28;20130;-73
2021/04/10 03:11:04;;;;;;;10.40;4.95;;;6.30;57.00;;;;;;5095546;28;20508;-73
2021/04/10 03:13:32;;;;;;;10.73;4.95;;;6.30;56.90;;;;;;5113535;28;20042;-72
2021/04/10 03:16:10;;;;;;;12.27;5.30;;;6.30;56.90;;;;;;5095684;28;20032;-72
2021/04/10 03:18:37;;;;;;;11.88;4.55;;;6.30;56.80;;;;;;5095364;28;20040;-72
2021/04/10 03:21:05;;;;;;;12.30;5.03;;;6.30;57.20;;;;;;5113496;28;20039;-74
2021/04/10 03:23:35;;;;;;;8.18;4.85;;;6.30;57.10;;;;;;5095053;28;20024;-72
2021/04/10 03:26:04;;;;;;;13.65;5.28;;;6.30;57.00;;;;;;5095193;28;20031;-73
2021/04/10 03:28:35;;;;;;;11.70;5.00;;;6.20;57.20;;;;;;5113666;28;20043;-74
2021/04/10 03:31:02;;;;;;;11.73;5.25;;;6.20;57.30;;;;;;5113068;28;20445;-73
2021/04/10 03:33:32;;;;;;;11.60;5.45;;;6.30;57.20;;;;;;5112851;28;20049;-74
2021/04/10 03:36:02;;;;;;;10.63;5.38;;;6.30;57.20;;;;;;5113577;28;20051;-73
2021/04/10 03:38:29;;;;;;;12.57;5.75;;;6.30;57.10;;;;;;5095130;28;20031;-73
2021/04/10 03:40:55;;;;;;;9.20;4.60;;;6.30;57.10;;;;;;5094900;28;20039;-73
2021/04/10 03:43:21;;;;;;;11.88;5.90;;;6.30;57.20;;;;;;5113153;28;20040;-73
2021/04/10 03:45:51;;;;;;;10.00;5.25;;;6.30;57.10;;;;;;5113183;28;20031;-74
2021/04/10 03:48:25;;;;;;;10.10;5.18;;;6.30;57.30;;;;;;5094481;28;20031;-72
2021/04/10 03:50:57;;;;;;;12.30;5.28;;;6.40;57.30;;;;;;5096052;28;20038;-74
2021/04/10 03:53:25;;;;;;;13.00;5.90;;;6.40;57.30;;;;;;5099221;28;20038;-74
2021/04/10 03:55:56;;;;;;;9.38;5.00;;;6.40;57.30;;;;;;5099320;28;20492;-75
2021/04/10 03:58:22;;;;;;;11.68;4.95;;;6.40;57.20;;;;;;5099332;28;20070;-73
2021/04/10 04:00:48;;;;;;;9.00;4.65;;;6.50;57.00;;;;;;5099229;28;20438;-74
2021/04/10 04:03:15;;;;;;;9.55;4.85;;;6.50;57.10;;;;;;5117053;28;20132;-73
2021/04/10 04:05:41;;;;;;;13.25;6.05;;;6.60;57.00;;;;;;5117151;28;20568;-73
2021/04/10 04:08:07;;;;;;;10.40;4.85;;;6.50;57.10;;;;;;5116860;28;20043;-72
2021/04/10 04:10:33;;;;;;;10.40;5.70;;;6.60;57.20;;;;;;5116876;28;20042;-73
2021/04/10 04:12:59;;;;;;;7.68;4.45;;;6.60;57.10;;;;;;5116646;28;20081;-72
2021/04/10 04:15:25;;;;;;;10.10;5.03;;;6.60;57.30;;;;;;5116654;28;20397;-72
2021/04/10 04:17:51;;;;;;;13.10;4.90;;;6.60;57.10;;;;;;5116540;28;20069;-72
2021/04/10 04:20:17;;;;;;;17.58;5.13;;;6.70;57.10;;;;;;5116517;28;20032;-73
2021/04/10 04:22:43;;;;;;;11.68;5.00;;;6.70;57.00;;;;;;5098633;28;20069;-72
2021/04/10 04:25:09;;;;;;;12.35;4.93;;;6.80;57.00;;;;;;5116478;28;20084;-73
2021/04/10 04:27:35;;;;;;;14.23;5.40;;;6.80;56.90;;;;;;5116654;28;20035;-73
2021/04/10 04:30:06;;;;;;;11.25;5.88;;;6.90;56.70;;;;;;5116782;28;20039;-73
2021/04/10 04:32:31;;;;;;;9.75;5.32;;;6.80;56.70;;;;;;5116541;28;20548;-73
2021/04/10 04:34:57;;;;;;;8.88;5.05;;;6.90;56.80;;;;;;5094400;28;20189;-72
2021/04/10 04:37:24;;;;;;;8.70;4.97;;;6.80;56.80;;;;;;5096281;28;20055;-73
2021/04/10 04:39:49;;;;;;;9.23;5.28;;;6.80;56.80;;;;;;5094609;28;20564;-74
2021/04/10 04:42:16;;;;;;;14.35;5.85;;;6.90;56.90;;;;;;5094703;28;20027;-75
2021/04/10 04:44:43;;;;;;;10.10;4.97;;;6.90;56.80;;;;;;5095770;28;20516;-75
2021/04/10 04:47:09;;;;;;;6.68;4.38;;;7.00;56.70;;;;;;5095588;28;20056;-74
2021/04/10 04:49:35;;;;;;;10.80;4.75;;;7.00;56.50;;;;;;5096092;28;20031;-75
2021/04/10 04:52:01;;;;;;;9.60;5.05;;;7.10;56.60;;;;;;5096480;28;20123;-74
2021/04/10 04:54:27;;;;;;;8.32;4.80;;;7.20;56.40;;;;;;5095594;28;20093;-74
2021/04/10 04:56:52;;;;;;;6.97;4.05;;;7.50;56.10;;;;;;5095594;28;20085;-73
2021/04/10 04:59:18;;;;;;;7.55;3.85;;;7.80;55.50;;;;;;5095720;28;20423;-74
2021/04/10 05:01:45;;;;;;;5.53;3.97;;;8.30;54.60;;;;;;5095445;28;20081;-76
2021/04/10 05:04:11;;;;;;;7.80;4.47;;;8.80;53.70;;;;;;5093533;28;20097;-76
2021/04/10 05:06:39;;;;;;;6.97;3.92;;;9.30;53.00;;;;;;5095735;28;20032;-74
2021/04/10 05:09:05;;;;;;;5.25;3.70;;;9.90;51.40;;;;;;5094028;28;20034;-74
2021/04/10 05:11:31;;;;;;;5.88;3.42;;;10.40;50.30;;;;;;5095491;28;20044;-74
2021/04/10 05:13:57;;;;;;;6.45;3.60;;;11.00;48.90;;;;;;5095206;28;20092;-72
2021/04/10 05:16:23;;;;;;;6.97;3.63;;;11.50;48.10;;;;;;5095145;28;20154;-74
2021/04/10 05:18:49;;;;;;;6.07;3.55;;;12.00;47.10;;;;;;5093973;28;20544;-72
2021/04/10 05:21:15;;;;;;;8.32;3.30;;;12.60;46.00;;;;;;5095292;28;20119;-72
2021/04/10 05:23:40;;;;;;;6.63;3.20;;;13.00;45.10;;;;;;5095198;28;20390;-73
2021/04/10 05:26:06;;;;;;;4.93;3.40;;;13.60;44.40;;;;;;5077071;28;20039;-74
2021/04/10 05:28:32;;;;;;;5.45;2.95;;;14.00;43.20;;;;;;5095347;28;20047;-75
2021/04/10 05:31:01;;;;;;;5.10;3.17;;;14.40;42.80;;;;;;5093711;28;20032;-74
2021/04/10 05:33:31;;;;;;;5.80;3.45;;;14.90;41.90;;;;;;5094915;28;20416;-71
2021/04/10 05:35:58;;;;;;;3.80;2.47;;;15.30;41.40;;;;;;5108522;28;20074;-74
2021/04/10 05:38:25;;;;;;;4.15;3.35;;;15.60;40.90;;;;;;5115081;28;20024;-75
2021/04/10 05:40:52;;;;;;;4.22;2.80;;;15.80;40.50;;;;;;5115118;28;20036;-74
2021/04/10 05:43:18;;;;;;;5.55;2.80;;;16.10;39.80;;;;;;5115035;28;20043;-74
2021/04/10 05:45:44;;;;;;;2.85;2.60;;;16.40;39.70;;;;;;5079828;28;20027;-72
2021/04/10 05:48:10;;;;;;;4.57;2.70;;;16.80;39.30;;;;;;5096798;28;20054;-71
2021/04/10 05:50:36;;;;;;;5.28;2.83;;;17.10;38.70;;;;;;5114831;28;20461;-71
2021/04/10 05:53:02;;;;;;;5.70;2.70;;;17.30;38.30;;;;;;5115115;28;20115;-72
2021/04/10 05:55:29;;;;;;;4.35;2.53;;;17.50;38.20;;;;;;5114915;28;20067;-72
2021/04/10 05:57:55;;;;;;;3.30;2.40;;;17.80;37.30;;;;;;5112621;28;20044;-77
2021/04/10 06:00:46;;;;;;;4.18;2.58;;;17.90;37.10;;;;;;5112772;28;20080;-76
2021/04/10 06:03:13;;;;;;;6.25;3.25;;;18.20;36.60;;;;;;5114107;28;20040;-82
2021/04/10 06:05:39;;;;;;;7.45;2.72;;;18.70;38.60;;;;;;5114196;28;20074;-76
2021/04/10 06:08:05;;;;;;;6.57;2.58;;;19.40;37.70;;;;;;5095426;28;20066;-79
2021/04/10 06:10:31;;;;;;;5.15;3.35;;;20.00;36.10;;;;;;5114762;28;20448;-77
2021/04/10 06:12:57;;;;;;;8.75;3.08;;;20.30;35.40;;;;;;5096504;28;20096;-77
2021/04/10 06:15:23;;;;;;;5.82;2.80;;;20.60;34.70;;;;;;5095040;28;20039;-76
2021/04/10 06:17:50;;;;;;;8.10;2.92;;;20.90;34.20;;;;;;5114297;28;20040;-76
2021/04/10 06:20:18;;;;;;;5.20;2.70;;;21.10;33.60;;;;;;5096487;28;20035;-76
2021/04/10 06:22:44;;;;;;;4.60;2.78;;;21.20;33.90;;;;;;5096540;28;20031;-76
2021/04/10 06:25:11;;;;;;;4.43;2.60;;;21.40;33.40;;;;;;5114423;28;20548;-75
2021/04/10 06:27:37;;;;;;;8.05;2.72;;;21.60;32.70;;;;;;5114123;28;20028;-75
2021/04/10 06:30:07;;;;;;;4.10;2.58;;;21.80;32.30;;;;;;5096012;28;20479;-75
2021/04/10 06:32:34;;;;;;;9.63;2.83;;;22.00;32.20;;;;;;5095319;28;20341;-73
2021/04/10 06:34:59;;;;;;;6.93;2.67;;;22.10;31.90;;;;;;5114055;28;20077;-77
2021/04/10 06:37:25;;;;;;;10.27;3.28;;;22.20;31.70;;;;;;5079088;28;20547;-76
2021/04/10 06:39:51;;;;;;;7.68;2.92;;;22.40;31.60;;;;;;5114019;28;20039;-74
2021/04/10 06:42:21;;;;;;;7.25;2.85;;;22.50;31.10;;;;;;5078506;28;20070;-75
2021/04/10 06:44:48;;;;;;;5.90;2.55;;;22.50;31.00;;;;;;5095533;28;20046;-70
2021/04/10 06:47:22;;;;;;;7.43;2.90;;;22.60;30.70;;;;;;5113898;28;20058;-73
2021/04/10 06:49:51;;;;;;;11.07;2.30;;;22.70;30.50;;;;;;5095510;28;20031;-70
2021/04/10 06:52:18;;;;;;;5.53;2.40;;;22.80;30.40;;;;;;5078084;28;20043;-70
2021/04/10 06:54:49;;;;;;;10.70;2.83;;;22.90;30.60;;;;;;5094725;28;20487;-74
2021/04/10 06:57:18;;;;;;;5.90;2.20;;;22.90;30.30;;;;;;5113898;28;20051;-74
2021/04/10 07:00:05;;;;;;;8.90;2.33;;;23.00;30.10;;;;;;5095205;28;20050;-75
2021/04/10 07:02:32;;;;;;;3.83;2.28;;;23.10;29.90;;;;;;5112382;28;20391;-71
2021/04/10 07:04:58;;;;;;;10.13;2.60;;;23.20;29.90;;;;;;5113281;28;20122;-72
2021/04/10 07:07:25;;;;;;;4.95;2.08;;;23.20;29.80;;;;;;5113345;28;20134;-72
2021/04/10 07:09:51;;;;;;;9.57;2.60;;;23.20;30.00;;;;;;5113294;28;20032;-73
2021/04/10 07:12:17;;;;;;;4.13;2.30;;;23.30;29.70;;;;;;5113453;28;20043;-71
2021/04/10 07:14:44;;;;;;;6.22;2.63;;;23.30;30.00;;;;;;5112823;28;20067;-72
2021/04/10 07:17:13;;;;;;;8.40;2.88;;;23.40;29.70;;;;;;5112704;28;20036;-74
2021/04/10 07:19:39;;;;;;;4.57;2.60;;;23.40;29.80;;;;;;5112888;28;20043;-71
2021/04/10 07:22:08;;;;;;;8.27;2.13;;;23.30;29.80;;;;;;5112908;28;20069;-72
2021/04/10 07:24:42;;;;;;;5.72;2.33;;;23.30;29.80;;;;;;5113084;28;20108;-73
2021/04/10 07:27:19;;;;;;;5.93;2.25;;;23.40;29.40;;;;;;5094001;28;20046;-72
2021/04/10 07:29:51;;;;;;;3.50;2.05;;;23.40;29.10;;;;;;5111147;28;20059;-71
2021/04/10 07:32:29;;;;;;;2.88;1.92;;;23.40;28.90;;;;;;5093062;28;20035;-71
2021/04/10 07:34:56;;;;;;;6.18;1.77;;;23.40;29.00;;;;;;5090487;28;20056;-71
2021/04/10 07:37:35;;;;;;;2.72;1.38;;;23.30;29.20;;;;;;5111075;28;20134;-74
2021/04/10 07:40:14;;;;;;;3.22;1.70;;;23.30;29.30;;;;;;5092199;28;20035;-69
2021/04/10 07:42:42;;;;;;;6.28;1.75;;;23.20;29.10;;;;;;5112047;28;20136;-71
2021/04/10 07:45:32;;;;;;;4.75;1.70;;;23.20;29.40;;;;;;5092889;28;20492;-74
2021/04/10 07:48:04;;;;;;;3.00;1.40;;;23.10;28.70;;;;;;5090426;28;20134;-74
2021/04/10 07:50:33;;;;;;;12.07;2.20;;;23.10;28.90;;;;;;5093225;28;20063;-74
2021/04/10 07:53:29;;;;;;;4.60;1.70;;;23.10;28.80;;;;;;5109181;28;20292;-75
2021/04/10 07:55:57;;;;;;;6.07;1.75;;;23.00;28.80;;;;;;5111382;28;20048;-74
2021/04/10 07:58:29;;;;;;;3.90;1.50;;;22.90;29.10;;;;;;5111562;28;20069;-73
2021/04/10 08:01:01;;;;;;;5.07;1.98;;;22.90;29.00;;;;;;5111306;28;20081;-73
2021/04/10 08:03:39;;;;;;;2.58;1.30;;;22.70;29.30;;;;;;5092663;28;20040;-72
2021/04/10 08:06:08;;;;;;;4.78;1.40;;;22.70;29.20;;;;;;5109024;28;20438;-75
2021/04/10 08:08:46;;;;;;;3.25;1.25;;;22.60;29.40;;;;;;5111300;28;20135;-75
2021/04/10 08:11:12;;;;;;;4.55;1.55;;;22.60;29.50;;;;;;5075867;28;20031;-79
2021/04/10 08:13:51;;;;;;;6.38;1.55;;;22.60;31.40;;;;;;5112840;28;20463;-75
2021/04/10 08:16:19;;;;;;;5.10;1.48;;;22.50;32.10;;;;;;5112841;28;20055;-77
2021/04/10 08:18:50;;;;;;;9.73;1.60;;;22.50;32.50;;;;;;5077866;28;20059;-72
2021/04/10 08:21:22;;;;;;;8.00;1.20;;;22.50;32.60;;;;;;5093996;28;20031;-69
2021/04/10 08:23:49;;;;;;;5.70;1.70;;;22.50;32.10;;;;;;5112340;28;20501;-68
2021/04/10 08:26:16;;;;;;;7.35;1.60;;;22.40;33.40;;;;;;5112707;28;20050;-68
2021/04/10 08:28:42;;;;;;;1.98;1.25;;;22.40;32.80;;;;;;5094064;28;20031;-69
2021/04/10 08:31:08;;;;;;;3.53;1.05;;;22.40;32.30;;;;;;5094142;28;20039;-67
2021/04/10 08:33:34;;;;;;;4.50;1.40;;;22.40;32.60;;;;;;5112843;28;20413;-67
2021/04/10 08:36:05;;;;;;;5.32;1.48;;;22.40;32.40;;;;;;5110300;28;20060;-70
2021/04/10 08:38:32;;;;;;;11.05;1.48;;;22.50;32.90;;;;;;5103798;28;20131;-69
2021/04/10 08:41:03;;;;;;;7.53;1.70;;;22.40;33.00;;;;;;5109515;28;20027;-69
2021/04/10 08:43:49;;;;;;;7.50;1.63;;;22.30;33.10;;;;;;5090576;27;20127;-68
2021/04/10 08:46:19;;;;;;;2.95;1.42;;;22.20;33.80;;;;;;5111555;28;20035;-68
2021/04/10 08:48:50;;;;;;;7.45;2.08;;;22.20;34.00;;;;;;5095442;28;20115;-68
2021/04/10 08:51:17;;;;;;;4.95;2.45;;;22.10;33.90;;;;;;5114433;28;20104;-71
2021/04/10 08:53:48;;;;;;;5.97;2.00;;;22.10;34.00;;;;;;5114340;28;20039;-79
2021/04/10 08:56:19;;;;;;;3.78;1.67;;;22.10;34.40;;;;;;5114428;28;20445;-78
2021/04/10 08:58:45;;;;;;;3.83;1.50;;;22.10;32.50;;;;;;5114595;28;20404;-79
2021/04/10 09:01:25;;;;;;;4.80;1.80;;;22.00;31.60;;;;;;5114948;28;20043;-76
2021/04/10 09:03:54;;;;;;;13.10;1.73;;;22.00;31.80;;;;;;5114401;28;20031;-77
2021/04/10 09:06:22;;;;;;;7.05;2.05;;;21.80;30.80;;;;;;5112969;28;20500;-77
2021/04/10 09:08:49;;;;;;;4.25;1.58;;;21.70;30.50;;;;;;5114016;28;20392;-77
2021/04/10 09:11:19;;;;;;;3.88;1.70;;;21.50;30.00;;;;;;5113832;28;20450;-77
2021/04/10 09:13:46;;;;;;;4.55;1.58;;;21.30;30.50;;;;;;5113920;28;20030;-77
2021/04/10 09:16:34;;;;;;;3.83;1.63;;;21.10;30.20;;;;;;5114670;28;20035;-75
2021/04/10 09:19:12;;;;;;;12.88;2.05;;;21.00;29.70;;;;;;5113762;28;20050;-78
2021/04/10 09:21:41;;;;;;;5.82;1.50;;;20.80;29.70;;;;;;5096406;28;20036;-78
2021/04/10 09:24:21;;;;;;;10.05;2.33;;;20.60;29.90;;;;;;5115439;28;20043;-76
2021/04/10 09:26:55;;;;;;;3.80;1.92;;;20.40;29.80;;;;;;5115166;28;20039;-76
2021/04/10 09:29:22;;;;;;;3.65;1.70;;;20.10;30.00;;;;;;5114857;28;20185;-77
2021/04/10 09:31:53;;;;;;;6.05;1.92;;;20.00;29.90;;;;;;5115034;28;20040;-77
2021/04/10 09:34:55;;;;;;;4.20;1.80;;;19.80;30.00;;;;;;5115274;28;20032;-76
2021/04/10 09:37:21;;;;;;;4.13;1.80;;;19.70;29.70;;;;;;5115316;28;20039;-75
2021/04/10 09:40:04;;;;;;;5.72;1.65;;;19.50;30.10;;;;;;5114405;28;20369;-76
2021/04/10 09:45:17;;;;;;;5.22;2.42;;;19.20;30.30;;;;;;5096429;28;20140;-75
2021/04/10 09:47:55;;;;;;;5.45;1.65;;;19.10;30.60;;;;;;5114882;28;20046;-75
2021/04/10 09:50:29;;;;;;;3.65;1.60;;;19.00;31.10;;;;;;5114202;28;20086;-75
2021/04/10 09:53:07;;;;;;;3.25;1.80;;;18.80;31.00;;;;;;5114737;28;20032;-75
2021/04/10 09:55:36;;;;;;;3.90;1.80;;;18.70;31.10;;;;;;5114366;28;20426;-75
2021/04/10 09:58:03;;;;;;;4.90;1.70;;;18.60;31.20;;;;;;5114753;28;20127;-76
2021/04/10 10:00:37;;;;;;;5.75;1.85;;;18.40;30.80;;;;;;5115027;28;20515;-76
2021/04/10 10:03:05;;;;;;;8.50;1.95;;;18.30;31.30;;;;;;5114610;28;20035;-76
2021/04/10 10:05:36;;;;;;;4.55;2.13;;;18.20;31.80;;;;;;5114256;28;20055;-77
2021/04/10 10:08:16;;;;;;;5.07;1.77;;;18.10;31.40;;;;;;5114311;28;20074;-76
2021/04/10 10:10:47;;;;;;;4.28;1.88;;;17.90;31.20;;;;;;5114036;28;20396;-76
2021/04/10 10:13:15;;;;;;;5.38;2.30;;;17.80;31.20;;;;;;5113595;28;20039;-75
2021/04/10 10:15:42;;;;;;;5.22;2.08;;;17.70;31.80;;;;;;5113948;28;20071;-75
2021/04/10 10:18:19;;;;;;;7.85;1.92;;;17.60;31.40;;;;;;5114175;28;20055;-75
2021/04/10 10:21:03;;;;;;;6.70;1.98;;;17.50;31.80;;;;;;5113947;28;20400;-75
2021/04/10 10:23:49;;;;;;;4.65;2.00;;;17.40;32.10;;;;;;5114594;28;20564;-76
2021/04/10 10:26:22;;;;;;;2.42;1.63;;;17.40;31.80;;;;;;5096088;28;20047;-76
2021/04/10 10:28:50;;;;;;;4.80;2.10;;;17.20;32.40;;;;;;5113737;28;20031;-75
2021/04/10 10:31:22;;;;;;;3.83;1.83;;;17.10;31.60;;;;;;5114039;28;20032;-74
2021/04/10 10:33:49;;;;;;;4.63;1.80;;;17.00;31.80;;;;;;5114098;28;20031;-74
2021/04/10 10:36:16;;;;;;;6.38;2.00;;;17.00;32.30;;;;;;5095815;28;20055;-77
2021/04/10 10:38:45;;;;;;;2.88;1.73;;;16.90;31.90;;;;;;5113763;28;20523;-75
2021/04/10 10:41:13;;;;;;;5.57;2.10;;;16.80;31.80;;;;;;5095496;28;20118;-75
2021/04/10 10:43:40;;;;;;;3.88;1.90;;;16.80;32.20;;;;;;5113515;28;20501;-77
2021/04/10 10:46:07;;;;;;;3.05;2.22;;;16.70;32.20;;;;;;5113812;28;20439;-75
2021/04/10 10:48:36;;;;;;;3.67;1.90;;;16.70;32.40;;;;;;5113341;28;20114;-76
2021/04/10 10:51:06;;;;;;;4.40;2.00;;;16.60;32.20;;;;;;5113106;28;20028;-75
2021/04/10 10:53:34;;;;;;;2.33;1.60;;;16.60;32.20;;;;;;5114379;28;20036;-75
2021/04/10 10:56:26;;;;;;;4.38;1.80;;;16.50;32.20;;;;;;5113183;28;20578;-75
2021/04/10 10:58:55;;;;;;;3.22;1.90;;;16.40;32.10;;;;;;5113757;28;20039;-75
2021/04/10 11:01:25;;;;;;;3.03;2.10;;;16.40;32.30;;;;;;5112237;28;20043;-75
2021/04/10 11:04:12;;;;;;;2.88;1.83;;;16.30;32.30;;;;;;5113495;28;20038;-74
2021/04/10 11:06:47;;;;;;;4.40;2.15;;;16.30;32.20;;;;;;5113405;28;20039;-75
2021/04/10 11:09:19;;;;;;;3.00;1.90;;;16.20;32.50;;;;;;5113315;28;20476;-75
2021/04/10 11:11:47;;;;;;;4.40;2.17;;;16.20;32.30;;;;;;5113023;28;20496;-77
2021/04/10 11:14:20;;;;;;;3.25;2.00;;;16.10;32.20;;;;;;5113155;28;20076;-75
2021/04/10 11:16:49;;;;;;;4.03;1.90;;;16.10;32.30;;;;;;5113273;28;20047;-75
2021/04/10 11:19:33;;;;;;;3.78;2.03;;;16.10;32.20;;;;;;5077967;28;20039;-75
2021/04/10 11:22:01;;;;;;;3.22;1.70;;;16.10;32.00;;;;;;5112826;28;20044;-76
2021/04/10 11:24:42;;;;;;;3.88;1.73;;;16.00;32.20;;;;;;5112581;28;20035;-74
2021/04/10 11:27:15;;;;;;;5.13;2.40;;;16.00;32.10;;;;;;5113511;28;20036;-74
2021/04/10 11:29:59;;;;;;;5.32;1.60;;;15.90;32.00;;;;;;5113048;28;20056;-74
2021/04/10 11:32:37;;;;;;;4.43;2.42;;;15.90;32.60;;;;;;5112959;28;20036;-75
2021/04/10 11:35:16;;;;;;;4.88;2.42;;;15.80;32.40;;;;;;5112544;28;20500;-76
2021/04/10 11:37:54;;;;;;;4.05;2.15;;;15.80;32.30;;;;;;5113293;28;20032;-74
2021/04/10 11:40:22;;;;;;;3.58;2.33;;;15.80;32.40;;;;;;5112906;28;20036;-74
2021/04/10 11:42:55;;;;;;;4.38;2.10;;;15.80;32.50;;;;;;5113160;28;20035;-74
2021/04/10 11:45:35;;;;;;;4.15;2.20;;;15.70;32.40;;;;;;5112684;28;20042;-74
2021/04/10 11:48:24;;;;;;;4.55;1.95;;;15.70;32.30;;;;;;5112812;28;20039;-75
2021/04/10 11:50:54;;;;;;;3.28;1.90;;;15.70;32.30;;;;;;5099585;28;20134;-75
2021/04/10 11:53:34;;;;;;;4.90;1.95;;;15.70;32.40;;;;;;5112816;28;20032;-75
2021/04/10 11:56:21;;;;;;;5.32;3.10;;;15.60;32.50;;;;;;5113029;28;20459;-75
2021/04/10 11:58:47;;;;;;;4.47;2.40;;;15.60;32.30;;;;;;5113075;28;20032;-74
2021/04/10 12:01:16;;;;;;;6.35;2.10;;;15.60;32.50;;;;;;5094179;28;20040;-75
2021/04/10 12:03:54;;;;;;;4.25;1.80;;;15.60;32.70;;;;;;5112508;28;20119;-76
2021/04/10 12:06:31;;;;;;;3.25;1.80;;;15.60;32.80;;;;;;5094186;28;20043;-74
2021/04/10 12:09:15;;;;;;;5.15;1.90;;;15.50;32.20;;;;;;5112611;28;20028;-74
2021/04/10 12:11:42;;;;;;;4.97;1.80;;;15.50;32.30;;;;;;5095010;28;20031;-74
2021/04/10 12:14:11;;;;;;;2.40;1.60;;;15.50;32.30;;;;;;5098456;28;20050;-77
2021/04/10 12:16:41;;;;;;;3.78;1.77;;;15.30;32.00;;;;;;5116746;28;20104;-77
2021/04/10 12:19:08;;;;;;;3.55;1.70;;;15.40;32.20;;;;;;5115661;28;20047;-81
2021/04/10 12:21:37;;;;;;;4.68;1.80;;;15.40;32.30;;;;;;5115381;28;20047;-82
2021/04/10 12:24:04;;;;;;;3.95;1.63;;;15.30;32.60;;;;;;5117033;28;20035;-83
2021/04/10 12:26:30;;;;;;;4.45;1.92;;;15.40;34.30;;;;;;5116643;28;20135;-82
2021/04/10 12:28:56;;;;;;;2.95;1.75;;;15.40;33.60;;;;;;5117149;28;20115;-76
2021/04/10 12:31:22;;;;;;;4.18;1.80;;;15.20;32.80;;;;;;5116805;28;20027;-76
2021/04/10 12:33:49;;;;;;;3.97;1.98;;;15.20;32.90;;;;;;5116867;28;20031;-73
2021/04/10 12:36:18;;;;;;;4.85;1.80;;;15.20;32.80;;;;;;5116495;28;20051;-78
2021/04/10 12:38:44;;;;;;;4.95;1.73;;;15.20;33.00;;;;;;5098142;28;20032;-74
2021/04/10 12:41:09;;;;;;;4.93;1.88;;;15.20;32.90;;;;;;5097848;28;20131;-78
2021/04/10 12:43:36;;;;;;;6.03;2.33;;;15.20;32.70;;;;;;5115971;28;20039;-81
2021/04/10 12:46:02;;;;;;;8.32;2.30;;;15.10;32.70;;;;;;5115929;28;20110;-80
2021/04/10 12:48:29;;;;;;;7.90;2.35;;;15.10;33.00;;;;;;5116167;28;20122;-71
2021/04/10 12:50:55;;;;;;;8.85;1.90;;;15.00;34.30;;;;;;5115779;28;20063;-72
2021/04/10 12:53:21;;;;;;;3.97;1.80;;;15.10;37.80;;;;;;5115680;28;20506;-78
2021/04/10 12:55:47;;;;;;;4.07;2.00;;;15.20;36.60;;;;;;5116092;28;20047;-76
2021/04/10 12:58:14;;;;;;;3.15;2.40;;;15.20;34.50;;;;;;5097444;28;20032;-75
2021/04/10 13:00:40;;;;;;;3.83;2.28;;;15.20;33.60;;;;;;5097404;28;20045;-81
2021/04/10 13:03:05;;;;;;;3.50;2.28;;;15.20;33.50;;;;;;5115745;28;20164;-79
2021/04/10 13:05:32;;;;;;;6.18;2.78;;;15.20;34.00;;;;;;5115567;28;20466;-81
2021/04/10 13:08:06;;;;;;;4.57;2.38;;;15.20;33.60;;;;;;5115906;28;20045;-74